Time;durP1;ratioP1;P1;durP2;ratioP2;P2;SDS_P1;SDS_P2;PMS_P1;PMS_P2;Temp;Humidity;BMP_temperature;BMP_pressure;BME280_temperature;BME280_humidity;BME280_pressure;Samples;Min_cycle;Max_cycle;Signal;HPM_P1;HPM_P2
2022/01/15 00:00:53;;;;;;;11.80;3.57;;;15.30;97.20;;;;;;1997697;28;20182;-76
2022/01/15 00:01:52;;;;;;;4.97;2.83;;;15.40;97.50;;;;;;1997897;28;20313;-76
2022/01/15 00:02:51;;;;;;;7.30;3.33;;;15.30;97.90;;;;;;1997221;28;20471;-76
2022/01/15 00:03:50;;;;;;;5.80;2.80;;;;;;;;;;1997477;28;20161;-74
2022/01/15 00:04:50;;;;;;;8.87;3.03;;;;;;;;;;1997873;28;20185;-74
2022/01/15 00:05:49;;;;;;;10.85;2.85;;;;;;;;;;1997625;28;20509;-75
2022/01/15 00:06:48;;;;;;;7.13;2.60;;;;;;;;;;1997789;28;20205;-74
2022/01/15 00:07:49;;;;;;;7.00;2.90;;;15.30;99.30;;;;;;1999361;28;20500;-75
2022/01/15 00:08:48;;;;;;;11.07;2.90;;;15.30;97.70;;;;;;1998971;28;20204;-74
2022/01/15 00:09:49;;;;;;;7.20;3.40;;;15.30;95.70;;;;;;1997637;28;20202;-74
2022/01/15 00:10:49;;;;;;;6.80;2.75;;;15.30;95.80;;;;;;1996974;28;20521;-75
2022/01/15 00:11:47;;;;;;;9.55;3.22;;;15.30;95.90;;;;;;1997115;28;20182;-74
2022/01/15 00:12:46;;;;;;;11.57;3.00;;;15.30;96.00;;;;;;1997447;28;20578;-74
2022/01/15 00:13:52;;;;;;;6.10;2.80;;;15.30;96.00;;;;;;1996958;28;20216;-74
2022/01/15 00:14:52;;;;;;;6.05;2.85;;;15.30;96.20;;;;;;1997136;28;20146;-74
2022/01/15 00:16:02;;;;;;;9.57;3.30;;;15.30;96.40;;;;;;1996939;28;20177;-74
2022/01/15 00:17:06;;;;;;;6.43;2.78;;;15.30;96.60;;;;;;1996985;28;20196;-74
2022/01/15 00:18:10;;;;;;;9.63;2.90;;;15.30;96.90;;;;;;2005235;28;20177;-73
2022/01/15 00:19:11;;;;;;;7.25;3.00;;;15.30;96.80;;;;;;2005789;28;20178;-74
2022/01/15 00:20:10;;;;;;;10.93;3.83;;;15.30;98.60;;;;;;2005693;28;20173;-74
2022/01/15 00:21:11;;;;;;;9.60;3.27;;;15.30;97.90;;;;;;1998104;28;20180;-73
2022/01/15 00:22:11;;;;;;;6.70;2.50;;;15.30;96.70;;;;;;1989936;28;20509;-74
2022/01/15 00:23:10;;;;;;;10.70;3.63;;;15.30;97.20;;;;;;1997690;28;20540;-74
2022/01/15 00:24:09;;;;;;;7.87;2.37;;;15.40;98.20;;;;;;1998720;28;20184;-74
2022/01/15 00:25:08;;;;;;;6.07;2.60;;;15.40;98.50;;;;;;1998576;28;20567;-74
2022/01/15 00:26:07;;;;;;;11.70;3.27;;;15.40;98.40;;;;;;1997334;28;20186;-75
2022/01/15 00:27:06;;;;;;;3.73;2.43;;;;;;;;;;1997002;28;20413;-74
2022/01/15 00:28:05;;;;;;;6.65;3.10;;;;;;;;;;1997102;28;20169;-74
2022/01/15 00:29:04;;;;;;;6.10;2.43;;;;;;;;;;1997440;28;20649;-74
2022/01/15 00:30:04;;;;;;;5.73;2.70;;;;;;;;;;1997435;28;20591;-75
2022/01/15 00:31:03;;;;;;;8.07;3.00;;;;;;;;;;1997525;28;20412;-74
2022/01/15 00:32:03;;;;;;;5.47;2.63;;;;;;;;;;1997507;28;20176;-74
2022/01/15 00:33:02;;;;;;;10.15;3.05;;;;;;;;;;1997615;28;20421;-74
2022/01/15 00:34:01;;;;;;;7.23;2.47;;;15.20;98.70;;;;;;1997679;28;20166;-74
2022/01/15 00:35:00;;;;;;;8.40;2.70;;;15.40;96.30;;;;;;1997527;28;20765;-74
2022/01/15 00:35:59;;;;;;;5.00;2.50;;;;;;;;;;1997480;28;20605;-74
2022/01/15 00:36:58;;;;;;;6.47;2.60;;;15.30;99.90;;;;;;1997424;28;20197;-75
2022/01/15 00:37:56;;;;;;;6.80;3.00;;;15.30;96.10;;;;;;1997766;28;20170;-74
2022/01/15 00:38:56;;;;;;;10.83;3.57;;;15.40;96.50;;;;;;1997308;28;20205;-74
2022/01/15 00:39:55;;;;;;;7.18;3.03;;;;;;;;;;1997756;28;20531;-74
2022/01/15 00:40:54;;;;;;;6.63;2.80;;;;;;;;;;1997438;28;20213;-74
2022/01/15 00:41:53;;;;;;;5.93;2.43;;;;;;;;;;1997549;28;20409;-75
2022/01/15 00:42:52;;;;;;;5.82;2.70;;;;;;;;;;1997483;28;20401;-74
2022/01/15 00:43:51;;;;;;;8.60;3.10;;;;;;;;;;1997018;28;20653;-74
2022/01/15 00:44:50;;;;;;;7.40;2.83;;;;;;;;;;1997011;28;20488;-74
2022/01/15 00:45:50;;;;;;;6.70;2.70;;;;;;;;;;1997637;28;20884;-75
2022/01/15 00:46:50;;;;;;;8.82;2.83;;;;;;;;;;1997440;28;20190;-75
2022/01/15 00:47:50;;;;;;;6.35;2.97;;;;;;;;;;1997440;28;20233;-75
2022/01/15 00:48:49;;;;;;;10.50;2.80;;;;;;;;;;1996716;28;20182;-75
2022/01/15 00:49:48;;;;;;;6.50;2.77;;;;;;;;;;1996806;28;20206;-75
2022/01/15 00:50:47;;;;;;;12.13;2.78;;;;;;;;;;1996900;28;20877;-74
2022/01/15 00:51:46;;;;;;;6.95;2.50;;;;;;;;;;1996896;28;20174;-74
2022/01/15 00:52:45;;;;;;;8.10;2.47;;;;;;;;;;1997408;28;20170;-75
2022/01/15 00:53:44;;;;;;;7.73;3.00;;;;;;;;;;1997400;28;20908;-75
2022/01/15 00:54:43;;;;;;;6.77;2.60;;;;;;;;;;1997649;28;20417;-75
2022/01/15 00:55:43;;;;;;;10.13;2.70;;;;;;;;;;1997593;28;20413;-75
2022/01/15 00:56:42;;;;;;;8.75;2.80;;;;;;;;;;1997487;28;20429;-75
2022/01/15 00:57:41;;;;;;;4.50;2.47;;;;;;;;;;1997510;28;20637;-74
2022/01/15 00:58:40;;;;;;;5.63;2.30;;;15.20;96.70;;;;;;1997553;28;20498;-75
2022/01/15 00:59:38;;;;;;;15.83;3.60;;;15.40;94.30;;;;;;2004843;28;20180;-75
2022/01/15 01:00:37;;;;;;;9.50;3.03;;;15.40;95.00;;;;;;2004837;28;20187;-75
2022/01/15 01:01:37;;;;;;;7.57;3.10;;;15.30;95.70;;;;;;1997907;28;20169;-75
2022/01/15 01:02:36;;;;;;;4.88;2.35;;;15.30;97.20;;;;;;1997466;28;20540;-75
2022/01/15 01:03:35;;;;;;;8.07;2.37;;;15.40;96.70;;;;;;1997897;28;20217;-74
2022/01/15 01:04:34;;;;;;;9.15;3.05;;;15.40;96.80;;;;;;1999148;28;20190;-74
2022/01/15 01:05:32;;;;;;;6.70;3.03;;;15.40;94.40;;;;;;1997106;28;20204;-74
2022/01/15 01:06:31;;;;;;;9.90;2.90;;;15.40;94.80;;;;;;1997327;28;20209;-75
2022/01/15 01:07:31;;;;;;;7.90;3.03;;;15.30;95.30;;;;;;2001477;28;20170;-74
2022/01/15 01:08:29;;;;;;;5.63;2.95;;;15.30;95.30;;;;;;2005937;28;20213;-74
2022/01/15 01:09:41;;;;;;;7.23;2.77;;;15.40;95.90;;;;;;2004926;28;20192;-74
2022/01/15 01:10:51;;;;;;;6.68;2.72;;;15.30;95.80;;;;;;2006168;28;20202;-73
2022/01/15 01:11:57;;;;;;;4.90;2.78;;;15.40;96.40;;;;;;2006490;28;20177;-74
2022/01/15 01:20:20;;;;;;;11.95;3.83;;;15.40;95.20;;;;;;1999947;28;20157;-75
2022/01/15 01:23:21;;;;;;;7.15;3.13;;;15.20;96.70;;;;;;1997493;28;20174;-75
2022/01/15 01:23:49;;;;;;;10.02;2.97;;;;;;;;;;1992564;28;20244;-75
2022/01/15 01:24:48;;;;;;;7.57;2.90;;;;;;;;;;1997159;28;20538;-75
2022/01/15 01:25:53;;;;;;;6.10;3.10;;;;;;;;;;1997147;28;20602;-75
2022/01/15 01:26:58;;;;;;;4.18;2.55;;;;;;;;;;1997045;28;20233;-75
2022/01/15 01:28:05;;;;;;;6.40;2.70;;;15.40;99.30;;;;;;1997132;28;20248;-75
2022/01/15 01:29:22;;;;;;;7.18;2.67;;;15.40;96.10;;;;;;1997230;28;20154;-75
2022/01/15 01:30:33;;;;;;;5.05;2.03;;;;;;;;;;1996301;28;20220;-75
2022/01/15 01:31:51;;;;;;;12.35;2.80;;;15.90;98.10;;;;;;1996398;28;20232;-74
2022/01/15 01:34:04;;;;;;;8.68;2.50;;;;;;;;;;1997144;28;20268;-75
2022/01/15 01:35:10;;;;;;;6.32;2.65;;;;;;;;;;1996510;28;20704;-74
2022/01/15 01:36:24;;;;;;;5.30;2.53;;;15.30;99.90;;;;;;1996399;28;20656;-75
2022/01/15 01:37:37;;;;;;;4.93;2.75;;;15.40;96.40;;;;;;1996617;28;20181;-74
2022/01/15 01:38:43;;;;;;;5.82;2.55;;;15.30;96.20;;;;;;1996561;28;20258;-75
2022/01/15 01:39:50;;;;;;;4.78;2.47;;;15.40;96.60;;;;;;1996620;28;20245;-74
2022/01/15 01:40:50;;;;;;;7.30;2.47;;;15.40;97.10;;;;;;1997225;28;20663;-75
2022/01/15 01:42:07;;;;;;;8.13;2.63;;;15.40;98.80;;;;;;1996424;28;20212;-75
2022/01/15 01:43:40;;;;;;;6.15;2.40;;;;;;;;;;1996763;28;20150;-75
2022/01/15 01:44:27;;;;;;;7.00;3.67;;;15.20;98.90;;;;;;1997051;28;20676;-75
2022/01/15 01:45:26;;;;;;;6.10;2.40;;;15.40;95.20;;;;;;1997040;28;20225;-73
2022/01/15 01:47:39;;;;;;;5.93;2.97;;;15.40;95.50;;;;;;1997264;28;20178;-73
2022/01/15 01:48:38;;;;;;;8.93;2.63;;;15.40;95.70;;;;;;1997446;28;20173;-74
2022/01/15 01:49:38;;;;;;;7.88;2.67;;;15.40;96.20;;;;;;1997296;28;20645;-74
2022/01/15 01:50:37;;;;;;;8.27;3.40;;;15.50;97.70;;;;;;1996792;28;20232;-74
2022/01/15 01:51:39;;;;;;;6.60;2.70;;;15.40;99.90;;;;;;1996844;28;20269;-73
2022/01/15 01:52:38;;;;;;;7.40;2.70;;;15.50;96.60;;;;;;1997208;28;20166;-73
2022/01/15 01:53:39;;;;;;;5.68;2.13;;;;;;;;;;1997399;28;20170;-74
2022/01/15 01:54:38;;;;;;;3.75;2.10;;;;;;;;;;1997535;28;20176;-74
2022/01/15 01:55:37;;;;;;;6.23;2.80;;;;;;;;;;1997410;28;20226;-74
2022/01/15 01:56:37;;;;;;;6.35;2.17;;;;;;;;;;1996803;28;20469;-73
2022/01/15 01:57:36;;;;;;;5.35;2.83;;;;;;;;;;1996959;28;20173;-73
2022/01/15 01:58:35;;;;;;;6.85;2.95;;;;;;;;;;1996988;28;20727;-74
2022/01/15 01:59:35;;;;;;;6.70;2.30;;;;;;;;;;2002628;28;20194;-72
2022/01/15 02:00:34;;;;;;;4.93;2.70;;;;;;;;;;2005339;28;20439;-73
2022/01/15 02:01:33;;;;;;;5.80;2.80;;;;;;;;;;2005776;28;20251;-72
2022/01/15 02:02:32;;;;;;;8.93;2.60;;;;;;;;;;2006298;28;20409;-73
2022/01/15 02:03:30;;;;;;;6.93;2.87;;;;;;;;;;2006276;28;20174;-73
2022/01/15 02:04:31;;;;;;;13.33;3.33;;;;;;;;;;2006137;28;20432;-72
2022/01/15 02:05:30;;;;;;;10.98;3.63;;;;;;;;;;2006239;28;20433;-73
2022/01/15 02:06:29;;;;;;;7.43;2.95;;;;;;;;;;2006267;28;20208;-73
2022/01/15 02:07:28;;;;;;;9.03;3.13;;;;;;;;;;2005942;28;20184;-72
2022/01/15 02:08:27;;;;;;;10.85;3.45;;;;;;;;;;2006147;28;20415;-72
2022/01/15 02:09:30;;;;;;;6.13;2.70;;;;;;;;;;2005810;28;20189;-72
2022/01/15 02:10:29;;;;;;;9.10;3.20;;;;;;;;;;2005662;28;20377;-72
2022/01/15 02:11:28;;;;;;;5.40;2.80;;;;;;;;;;2005973;28;20164;-73
2022/01/15 02:12:30;;;;;;;5.33;2.57;;;;;;;;;;2005916;28;20285;-73
2022/01/15 02:13:31;;;;;;;6.43;2.60;;;;;;;;;;2006121;28;20397;-73
2022/01/15 02:14:31;;;;;;;9.43;2.67;;;;;;;;;;2013788;28;20189;-73
2022/01/15 02:15:30;;;;;;;7.50;2.80;;;;;;;;;;2013543;28;20161;-74
2022/01/15 02:16:29;;;;;;;8.18;2.50;;;;;;;;;;2006176;28;20257;-73
2022/01/15 02:17:29;;;;;;;7.23;2.70;;;;;;;;;;2006150;28;20305;-72
2022/01/15 02:18:30;;;;;;;5.55;2.70;;;;;;;;;;2006257;28;20432;-72
2022/01/15 02:19:32;;;;;;;6.90;2.40;;;;;;;;;;2005882;28;20173;-72
2022/01/15 02:24:04;;;;;;;4.43;2.00;;;15.20;99.90;;;;;;1998000;28;20162;-73
2022/01/15 02:25:02;;;;;;;5.20;2.40;;;15.30;95.10;;;;;;1997124;28;20190;-74
2022/01/15 02:26:06;;;;;;;8.67;2.57;;;15.30;95.20;;;;;;1996927;28;20786;-75
2022/01/15 02:27:05;;;;;;;11.82;2.88;;;;;;;;;;1998381;28;20166;-74
2022/01/15 02:28:04;;;;;;;7.67;2.20;;;;;;;;;;1998656;28;20173;-74
2022/01/15 02:29:04;;;;;;;7.63;3.23;;;;;;;;;;1998447;28;20910;-73
2022/01/15 02:30:04;;;;;;;7.22;2.13;;;;;;;;;;1998349;28;20389;-74
2022/01/15 02:31:07;;;;;;;5.20;2.33;;;;;;;;;;1998482;28;20255;-74
2022/01/15 02:32:06;;;;;;;5.25;2.55;;;;;;;;;;1998442;28;20162;-74
2022/01/15 02:33:06;;;;;;;7.07;3.13;;;;;;;;;;1998373;28;20186;-75
2022/01/15 02:34:06;;;;;;;9.85;2.50;;;;;;;;;;1998412;28;20170;-74
2022/01/15 02:35:05;;;;;;;6.47;2.42;;;;;;;;;;1998400;28;20166;-73
2022/01/15 02:36:05;;;;;;;11.05;2.85;;;;;;;;;;1998151;28;20643;-73
2022/01/15 02:37:05;;;;;;;5.35;2.40;;;;;;;;;;1998253;28;20178;-73
2022/01/15 02:38:05;;;;;;;6.93;2.63;;;;;;;;;;1998215;28;20169;-75
2022/01/15 02:39:05;;;;;;;5.53;2.50;;;;;;;;;;1998243;28;20170;-74
2022/01/15 02:40:04;;;;;;;8.90;2.90;;;;;;;;;;1998240;28;20189;-74
2022/01/15 02:41:03;;;;;;;5.32;2.10;;;;;;;;;;1998266;28;20634;-74
2022/01/15 02:42:03;;;;;;;4.90;2.15;;;;;;;;;;1998322;28;20182;-74
2022/01/15 02:43:10;;;;;;;7.63;2.75;;;;;;;;;;1998128;28;20178;-74
2022/01/15 02:44:15;;;;;;;4.47;2.10;;;;;;;;;;1997541;28;20190;-74
2022/01/15 02:45:21;;;;;;;4.40;2.17;;;;;;;;;;1997700;28;20150;-74
2022/01/15 02:48:44;;;;;;;6.20;2.05;;;;;;;;;;1998208;28;20582;-75
2022/01/15 02:49:42;;;;;;;6.20;2.23;;;;;;;;;;1998141;28;20186;-75
2022/01/15 02:50:43;;;;;;;7.60;2.60;;;;;;;;;;1998101;28;20465;-75
2022/01/15 02:51:42;;;;;;;5.43;2.10;;;;;;;;;;1997457;28;20823;-74
2022/01/15 02:52:40;;;;;;;4.10;1.90;;;;;;;;;;1997584;28;20174;-74
2022/01/15 02:53:39;;;;;;;6.27;3.03;;;;;;;;;;1998171;28;20405;-74
2022/01/15 02:54:38;;;;;;;4.23;1.83;;;;;;;;;;1998145;28;20455;-74
2022/01/15 02:55:44;;;;;;;6.33;2.10;;;;;;;;;;1998033;28;20456;-74
2022/01/15 02:56:44;;;;;;;9.10;2.65;;;;;;;;;;1997296;28;20829;-74
2022/01/15 02:57:43;;;;;;;9.63;2.90;;;;;;;;;;1997456;28;20205;-74
2022/01/15 02:58:43;;;;;;;6.35;2.88;;;;;;;;;;1997604;28;20256;-75
2022/01/15 02:59:45;;;;;;;7.47;2.40;;;;;;;;;;1997487;28;20170;-74
2022/01/15 03:00:45;;;;;;;5.70;2.58;;;;;;;;;;1997374;28;20590;-74
2022/01/15 03:01:44;;;;;;;4.45;2.03;;;;;;;;;;1997558;28;20178;-75
2022/01/15 03:02:44;;;;;;;6.10;2.50;;;;;;;;;;1998178;28;20189;-74
2022/01/15 03:03:43;;;;;;;6.07;2.70;;;;;;;;;;1997978;28;20178;-74
2022/01/15 03:04:42;;;;;;;4.40;2.30;;;;;;;;;;2005489;28;20185;-74
2022/01/15 03:05:41;;;;;;;6.77;2.43;;;;;;;;;;2005325;28;20408;-74
2022/01/15 03:06:40;;;;;;;6.30;2.20;;;;;;;;;;1998310;28;20478;-74
2022/01/15 03:07:41;;;;;;;3.55;2.25;;;;;;;;;;1997912;28;20413;-75
2022/01/15 03:08:40;;;;;;;6.75;2.70;;;;;;;;;;1997474;28;20277;-74
2022/01/15 03:09:40;;;;;;;6.22;3.55;;;;;;;;;;1997470;28;20178;-75
2022/01/15 03:10:39;;;;;;;8.15;2.22;;;;;;;;;;1997939;28;20236;-74
2022/01/15 03:11:41;;;;;;;6.97;2.40;;;;;;;;;;1998122;28;20185;-74
2022/01/15 03:12:41;;;;;;;5.72;2.45;;;;;;;;;;1998008;28;20433;-75
2022/01/15 03:13:41;;;;;;;4.00;2.20;;;;;;;;;;1998064;28;20620;-75
2022/01/15 03:14:41;;;;;;;4.97;2.80;;;;;;;;;;1998183;28;20405;-74
2022/01/15 03:15:41;;;;;;;4.43;2.40;;;;;;;;;;1997344;28;20228;-75
2022/01/15 03:16:40;;;;;;;6.32;2.40;;;;;;;;;;1997372;28;20687;-75
2022/01/15 03:17:39;;;;;;;7.53;2.60;;;;;;;;;;1998011;28;20173;-75
2022/01/15 03:18:38;;;;;;;7.30;2.40;;;;;;;;;;1998018;28;20440;-74
2022/01/15 03:19:37;;;;;;;9.60;2.77;;;;;;;;;;1997931;28;20416;-74
2022/01/15 03:20:36;;;;;;;8.47;2.47;;;;;;;;;;1998071;28;20499;-74
2022/01/15 03:21:35;;;;;;;5.73;2.20;;;;;;;;;;1997963;28;20408;-75
2022/01/15 03:22:34;;;;;;;9.15;2.42;;;;;;;;;;1997996;28;20401;-74
2022/01/15 03:23:34;;;;;;;6.00;2.60;;;;;;;;;;1997939;28;20533;-74
2022/01/15 03:24:33;;;;;;;6.40;2.15;;;;;;;;;;1997781;28;20417;-74
2022/01/15 03:25:33;;;;;;;10.10;2.90;;;;;;;;;;1998080;28;20716;-75
2022/01/15 03:26:32;;;;;;;9.23;3.13;;;;;;;;;;1997941;28;20516;-74
2022/01/15 03:27:31;;;;;;;3.78;2.10;;;;;;;;;;1997874;28;20178;-74
2022/01/15 03:28:30;;;;;;;7.70;2.50;;;;;;;;;;1997872;28;20205;-75
2022/01/15 03:29:29;;;;;;;7.15;3.00;;;;;;;;;;1997928;28;20417;-74
2022/01/15 03:30:28;;;;;;;4.87;2.20;;;;;;;;;;1997129;28;20743;-74
2022/01/15 03:31:27;;;;;;;6.33;2.37;;;;;;;;;;1997222;28;20413;-74
2022/01/15 03:32:26;;;;;;;6.80;2.27;;;;;;;;;;1997955;28;20413;-74
2022/01/15 03:33:25;;;;;;;5.32;2.63;;;;;;;;;;2005054;28;20781;-74
2022/01/15 03:34:24;;;;;;;4.00;1.87;;;;;;;;;;2005252;28;20165;-75
2022/01/15 03:35:23;;;;;;;9.60;3.07;;;;;;;;;;1997784;28;21069;-74
2022/01/15 03:36:22;;;;;;;4.90;2.03;;;;;;;;;;1997683;28;20461;-74
2022/01/15 03:37:21;;;;;;;7.05;2.50;;;;;;;;;;1997585;28;20452;-75
2022/01/15 03:38:20;;;;;;;5.43;2.20;;;;;;;;;;1997908;28;20170;-74
2022/01/15 03:39:19;;;;;;;6.67;2.40;;;;;;;;;;1997343;28;20838;-74
2022/01/15 03:40:18;;;;;;;7.13;2.30;;;;;;;;;;1997322;28;20880;-74
2022/01/15 03:41:19;;;;;;;8.68;3.20;;;;;;;;;;1997996;28;20575;-74
2022/01/15 03:42:18;;;;;;;6.63;2.30;;;;;;;;;;1997880;28;20231;-74
2022/01/15 03:43:16;;;;;;;4.20;2.20;;;;;;;;;;1997922;28;20473;-74
2022/01/15 03:44:17;;;;;;;5.28;2.70;;;;;;;;;;1998009;28;20488;-74
2022/01/15 03:45:16;;;;;;;8.57;3.50;;;;;;;;;;1997959;28;20522;-74
2022/01/15 03:46:15;;;;;;;5.05;2.28;;;;;;;;;;1997753;28;20174;-74
2022/01/15 03:47:15;;;;;;;7.70;2.30;;;;;;;;;;1997919;28;20269;-72
2022/01/15 03:48:14;;;;;;;6.07;2.47;;;;;;;;;;1997064;28;20417;-74
2022/01/15 03:49:13;;;;;;;5.25;2.55;;;;;;;;;;1997320;28;20257;-74
2022/01/15 03:50:12;;;;;;;6.40;2.57;;;;;;;;;;1997759;28;20201;-74
2022/01/15 03:51:11;;;;;;;6.05;2.72;;;;;;;;;;1997152;28;20428;-74
2022/01/15 03:52:11;;;;;;;4.93;2.10;;;;;;;;;;1997206;28;20208;-74
2022/01/15 03:53:11;;;;;;;4.15;1.75;;;;;;;;;;1997692;28;20401;-75
2022/01/15 03:54:10;;;;;;;4.65;2.08;;;;;;;;;;1997895;28;20700;-74
2022/01/15 03:55:11;;;;;;;4.53;1.80;;;;;;;;;;1997629;28;20210;-74
2022/01/15 03:56:10;;;;;;;4.65;2.60;;;;;;;;;;1997742;28;20397;-74
2022/01/15 03:57:09;;;;;;;2.73;2.10;;;;;;;;;;1997086;28;20170;-74
2022/01/15 03:58:08;;;;;;;3.77;2.10;;;;;;;;;;1997322;28;20401;-75
2022/01/15 03:59:08;;;;;;;6.63;2.40;;;;;;;;;;1997149;28;20500;-75
2022/01/15 04:00:12;;;;;;;5.60;2.30;;;;;;;;;;1997127;28;20401;-75
2022/01/15 04:01:11;;;;;;;6.95;2.22;;;;;;;;;;1997675;28;20174;-74
2022/01/15 04:02:10;;;;;;;4.47;2.10;;;;;;;;;;1997050;28;20174;-73
2022/01/15 04:03:09;;;;;;;4.10;2.00;;;;;;;;;;1997221;28;20201;-74
2022/01/15 04:04:08;;;;;;;9.50;2.50;;;;;;;;;;1997606;28;20409;-74
2022/01/15 04:05:07;;;;;;;7.40;2.80;;;;;;;;;;1996948;28;20413;-74
2022/01/15 04:06:06;;;;;;;7.13;2.70;;;;;;;;;;1996938;28;20405;-74
2022/01/15 04:07:05;;;;;;;7.00;2.38;;;;;;;;;;1997093;28;20173;-74
2022/01/15 04:08:05;;;;;;;5.20;2.73;;;;;;;;;;1997534;28;20182;-74
2022/01/15 04:09:05;;;;;;;6.85;2.30;;;;;;;;;;1997614;28;20412;-74
2022/01/15 04:10:05;;;;;;;4.95;2.70;;;;;;;;;;1997622;28;20193;-75
2022/01/15 04:11:04;;;;;;;6.88;2.00;;;;;;;;;;1997512;28;20289;-74
2022/01/15 04:12:03;;;;;;;5.65;2.60;;;;;;;;;;1997641;28;20217;-74
2022/01/15 04:13:02;;;;;;;11.00;3.00;;;;;;;;;;1997563;28;20671;-74
2022/01/15 04:14:02;;;;;;;4.05;2.00;;;;;;;;;;1997486;28;20178;-74
2022/01/15 04:15:01;;;;;;;6.15;2.35;;;;;;;;;;1997672;28;20183;-74
2022/01/15 04:16:02;;;;;;;7.33;2.20;;;;;;;;;;1996840;28;20261;-75
2022/01/15 04:17:00;;;;;;;5.75;2.05;;;;;;;;;;1996884;28;20425;-74
2022/01/15 04:17:59;;;;;;;8.90;2.17;;;;;;;;;;1997548;28;20264;-74
2022/01/15 04:18:59;;;;;;;9.00;2.37;;;;;;;;;;1997475;28;20495;-74
2022/01/15 04:19:59;;;;;;;8.07;2.58;;;;;;;;;;2004938;28;20401;-74
2022/01/15 04:20:59;;;;;;;6.00;2.75;;;;;;;;;;2004692;28;20247;-74
2022/01/15 04:21:58;;;;;;;7.78;2.20;;;15.10;98.20;;;;;;1997457;28;20182;-74
2022/01/15 04:22:56;;;;;;;3.93;2.07;;;15.20;95.20;;;;;;1997540;28;20204;-74
2022/01/15 04:23:55;;;;;;;6.17;2.20;;;15.20;95.10;;;;;;1997506;28;20174;-74
2022/01/15 04:24:53;;;;;;;3.60;2.20;;;15.20;95.00;;;;;;1997387;28;20202;-74
2022/01/15 04:25:52;;;;;;;6.40;2.50;;;15.20;95.10;;;;;;1997471;28;20177;-74
2022/01/15 04:26:50;;;;;;;4.67;1.80;;;15.20;95.10;;;;;;1997382;28;20275;-74
2022/01/15 04:27:49;;;;;;;4.07;1.80;;;15.20;95.00;;;;;;1997452;28;20173;-74
2022/01/15 04:28:48;;;;;;;6.93;2.30;;;15.20;95.00;;;;;;1997588;28;20174;-74
2022/01/15 04:29:46;;;;;;;3.30;1.93;;;15.20;95.00;;;;;;1997416;28;20397;-74
2022/01/15 04:30:48;;;;;;;8.13;2.50;;;15.20;95.00;;;;;;1997378;28;20202;-74
2022/01/15 04:31:51;;;;;;;6.60;2.22;;;15.20;95.00;;;;;;1996729;28;20244;-74
2022/01/15 04:32:49;;;;;;;5.63;2.10;;;15.20;95.00;;;;;;1996933;28;20178;-74
2022/01/15 04:33:48;;;;;;;5.30;2.33;;;15.20;95.00;;;;;;1997299;28;20280;-74
2022/01/15 04:34:47;;;;;;;9.10;2.77;;;15.20;95.10;;;;;;1997397;28;20174;-74
2022/01/15 04:35:46;;;;;;;8.40;2.80;;;15.20;95.10;;;;;;1997336;28;20168;-74
2022/01/15 04:36:46;;;;;;;3.43;2.37;;;15.20;95.00;;;;;;1997296;28;20208;-74
2022/01/15 04:37:48;;;;;;;4.78;1.88;;;15.20;95.10;;;;;;2004458;28;20644;-74
2022/01/15 04:38:46;;;;;;;8.88;2.30;;;15.20;95.00;;;;;;2004546;28;20212;-74
2022/01/15 04:39:45;;;;;;;4.30;2.10;;;15.20;95.10;;;;;;1997457;28;20601;-74
2022/01/15 04:40:44;;;;;;;5.63;2.33;;;15.20;95.10;;;;;;1997348;28;20178;-74
2022/01/15 04:41:42;;;;;;;6.83;2.30;;;15.20;95.10;;;;;;1997461;28;20261;-74
2022/01/15 04:42:42;;;;;;;5.97;2.33;;;15.20;95.10;;;;;;1997302;28;20192;-74
2022/01/15 04:43:43;;;;;;;3.30;2.10;;;15.20;95.10;;;;;;1997453;28;20178;-75
2022/01/15 04:44:42;;;;;;;11.13;2.70;;;15.20;95.20;;;;;;1997254;28;20177;-74
2022/01/15 04:45:40;;;;;;;7.15;2.70;;;15.20;95.10;;;;;;1996751;28;20220;-74
2022/01/15 04:46:39;;;;;;;7.77;2.47;;;15.20;95.10;;;;;;1996607;28;20209;-74
2022/01/15 04:47:40;;;;;;;4.27;2.03;;;15.10;95.20;;;;;;1997488;28;20248;-74
2022/01/15 04:48:39;;;;;;;5.00;2.10;;;15.20;95.20;;;;;;1997029;28;20405;-74
2022/01/15 04:49:38;;;;;;;4.07;2.77;;;15.20;95.30;;;;;;1996987;28;20182;-74
2022/01/15 04:50:37;;;;;;;7.03;2.50;;;15.20;95.30;;;;;;1997303;28;20190;-74
2022/01/15 04:51:37;;;;;;;3.20;1.80;;;15.20;95.30;;;;;;1996512;28;20182;-74
2022/01/15 04:52:38;;;;;;;6.50;2.15;;;15.20;95.30;;;;;;1996831;28;20232;-74
2022/01/15 04:53:38;;;;;;;7.15;2.53;;;;;;;;;;1997423;28;20169;-74
2022/01/15 04:54:37;;;;;;;6.32;2.17;;;;;;;;;;1997286;28;20546;-74
2022/01/15 04:55:36;;;;;;;4.17;2.20;;;;;;;;;;1997239;28;20217;-74
2022/01/15 04:56:35;;;;;;;6.28;2.17;;;;;;;;;;1997194;28;20643;-73
2022/01/15 04:57:35;;;;;;;4.60;2.00;;;;;;;;;;1997208;28;20182;-74
2022/01/15 04:58:34;;;;;;;6.22;2.97;;;;;;;;;;1997118;28;20405;-74
2022/01/15 04:59:34;;;;;;;4.68;2.63;;;;;;;;;;1997271;28;20197;-74
2022/01/15 05:00:34;;;;;;;5.63;2.77;;;;;;;;;;1997152;28;20209;-74
2022/01/15 05:01:33;;;;;;;7.53;2.20;;;;;;;;;;1997159;28;20410;-74
2022/01/15 05:02:32;;;;;;;6.80;2.70;;;;;;;;;;1997162;28;20192;-74
2022/01/15 05:03:31;;;;;;;4.67;2.37;;;;;;;;;;1997210;28;20546;-74
2022/01/15 05:04:29;;;;;;;5.80;2.50;;;;;;;;;;1997242;28;20455;-74
2022/01/15 05:05:29;;;;;;;7.77;3.13;;;;;;;;;;1997144;28;20463;-74
2022/01/15 05:06:28;;;;;;;5.75;2.50;;;;;;;;;;1997068;28;20788;-74
2022/01/15 05:07:27;;;;;;;9.83;2.47;;;;;;;;;;1997726;28;20206;-74
2022/01/15 05:08:26;;;;;;;5.97;2.13;;;;;;;;;;1998306;28;20432;-73
2022/01/15 05:09:24;;;;;;;4.20;1.95;;;;;;;;;;1998355;28;20896;-74
2022/01/15 05:10:27;;;;;;;4.60;2.27;;;;;;;;;;1998366;28;20555;-74
2022/01/15 05:11:33;;;;;;;6.57;2.25;;;;;;;;;;1998041;28;20453;-74
2022/01/15 05:12:41;;;;;;;6.93;2.35;;;;;;;;;;1997600;28;20154;-74
2022/01/15 05:13:40;;;;;;;4.63;2.08;;;;;;;;;;1998123;28;20151;-74
2022/01/15 05:14:39;;;;;;;4.73;2.10;;;;;;;;;;1998222;28;20182;-73
2022/01/15 05:15:37;;;;;;;9.10;3.07;;;;;;;;;;1997328;28;20455;-74
2022/01/15 05:16:36;;;;;;;3.10;1.93;;;;;;;;;;1997036;28;20432;-74
2022/01/15 05:17:35;;;;;;;5.57;2.30;;;;;;;;;;1997284;28;20406;-74
2022/01/15 05:18:35;;;;;;;7.68;2.53;;;;;;;;;;1997049;28;20491;-74
2022/01/15 05:19:34;;;;;;;2.83;1.50;;;;;;;;;;1996943;28;20261;-74
2022/01/15 05:20:33;;;;;;;7.53;2.33;;;;;;;;;;1996919;28;20185;-74
2022/01/15 05:21:32;;;;;;;7.10;2.15;;;;;;;;;;1997098;28;20502;-74
2022/01/15 05:22:33;;;;;;;10.38;2.65;;;;;;;;;;1997136;28;20188;-74
2022/01/15 05:23:32;;;;;;;5.30;2.10;;;;;;;;;;1997204;28;20555;-74
2022/01/15 05:24:31;;;;;;;4.20;1.90;;;;;;;;;;1996976;28;20178;-74
2022/01/15 05:25:30;;;;;;;2.70;1.60;;;;;;;;;;1997128;28;20492;-74
2022/01/15 05:26:29;;;;;;;5.97;2.10;;;;;;;;;;1997178;28;20205;-74
2022/01/15 05:27:28;;;;;;;3.97;2.23;;;;;;;;;;2004311;28;20503;-75
2022/01/15 05:28:27;;;;;;;4.63;2.37;;;;;;;;;;2004226;28;20435;-74
2022/01/15 05:29:26;;;;;;;5.30;2.57;;;;;;;;;;1997522;28;20444;-74
2022/01/15 05:30:25;;;;;;;5.23;2.20;;;;;;;;;;1996991;28;20463;-74
2022/01/15 05:31:24;;;;;;;5.03;2.33;;;;;;;;;;1996349;28;20421;-74
2022/01/15 05:32:23;;;;;;;3.20;1.95;;;;;;;;;;1996557;28;20445;-74
2022/01/15 05:33:22;;;;;;;5.43;2.43;;;;;;;;;;1996962;28;20181;-74
2022/01/15 05:34:21;;;;;;;4.83;2.40;;;;;;;;;;1996921;28;20437;-74
2022/01/15 05:35:25;;;;;;;4.43;2.13;;;;;;;;;;1997048;28;20397;-74
2022/01/15 05:36:24;;;;;;;4.93;2.47;;;;;;;;;;1996986;28;20465;-74
2022/01/15 05:37:24;;;;;;;3.43;2.27;;;;;;;;;;1997018;28;20220;-74
2022/01/15 05:38:23;;;;;;;4.10;2.38;;;;;;;;;;1997026;28;20528;-74
2022/01/15 05:39:22;;;;;;;7.93;3.00;;;;;;;;;;1997142;28;20412;-74
2022/01/15 05:40:21;;;;;;;4.20;2.00;;;;;;;;;;1997069;28;20416;-75
2022/01/15 05:41:20;;;;;;;4.40;2.10;;;;;;;;;;1997056;28;20769;-74
2022/01/15 05:42:19;;;;;;;5.40;2.22;;;;;;;;;;1996964;28;20764;-74
2022/01/15 05:43:18;;;;;;;3.80;2.10;;;;;;;;;;1997137;28;20645;-74
2022/01/15 05:44:17;;;;;;;9.73;2.23;;;;;;;;;;1997159;28;20178;-74
2022/01/15 05:45:16;;;;;;;5.90;2.67;;;;;;;;;;1997008;28;20444;-74
2022/01/15 05:46:15;;;;;;;6.10;2.50;;;;;;;;;;1996189;28;20188;-74
2022/01/15 05:47:14;;;;;;;6.50;2.40;;;;;;;;;;1996435;28;20225;-74
2022/01/15 05:48:13;;;;;;;3.97;2.13;;;;;;;;;;1996375;28;20900;-75
2022/01/15 05:49:13;;;;;;;6.45;2.55;;;;;;;;;;1996977;28;20548;-74
2022/01/15 05:50:12;;;;;;;5.70;2.20;;;;;;;;;;1996096;28;20205;-75
2022/01/15 05:51:11;;;;;;;3.63;2.10;;;;;;;;;;1996450;28;20589;-74
2022/01/15 05:52:11;;;;;;;4.33;2.30;;;;;;;;;;1996902;28;20443;-75
2022/01/15 05:53:10;;;;;;;3.05;2.20;;;;;;;;;;2004271;28;20448;-74
2022/01/15 05:54:10;;;;;;;4.73;2.40;;;;;;;;;;2004071;28;20173;-74
2022/01/15 05:55:11;;;;;;;4.05;1.85;;;;;;;;;;1996896;28;20944;-74
2022/01/15 05:56:10;;;;;;;3.30;1.63;;;;;;;;;;1996879;28;20205;-74
2022/01/15 05:57:09;;;;;;;3.40;2.03;;;;;;;;;;1996243;28;20747;-74
2022/01/15 05:58:07;;;;;;;4.93;2.20;;;;;;;;;;1996263;28;20456;-74
2022/01/15 05:59:08;;;;;;;5.27;2.03;;;;;;;;;;1996262;28;20407;-75
2022/01/15 06:00:08;;;;;;;4.40;2.00;;;;;;;;;;1996917;28;20405;-74
2022/01/15 06:01:07;;;;;;;4.30;2.15;;;;;;;;;;1996839;28;20162;-74
2022/01/15 06:02:06;;;;;;;7.45;3.45;;;;;;;;;;1996340;28;20173;-74
2022/01/15 06:03:05;;;;;;;6.05;2.00;;;;;;;;;;1996973;28;20544;-74